createdAt,value
2017-09-11T00:00:34.157Z,0
2017-09-11T00:01:34.844Z,0
2017-09-11T00:02:35.499Z,0
2017-09-11T00:03:36.403Z,0
2017-09-11T00:04:37.057Z,0
2017-09-11T00:05:37.712Z,0
2017-09-11T00:06:38.365Z,0
2017-09-11T00:07:39.020Z,0
2017-09-11T00:08:39.974Z,0
2017-09-11T00:09:40.628Z,0
2017-09-11T00:10:41.284Z,0
2017-09-11T00:11:41.943Z,0
2017-09-11T00:12:42.592Z,0
2017-09-11T00:13:43.548Z,0
2017-09-11T00:14:44.203Z,0
2017-09-11T00:15:44.859Z,0
2017-09-11T00:16:45.512Z,0
2017-09-11T00:17:46.169Z,0
2017-09-11T00:18:47.124Z,0
2017-09-11T00:19:47.779Z,0
2017-09-11T00:20:48.432Z,0
2017-09-11T00:21:49.090Z,0
2017-09-11T00:22:49.742Z,0
2017-09-11T00:23:50.648Z,0
2017-09-11T00:24:51.310Z,0
2017-09-11T00:25:51.958Z,0
2017-09-11T00:26:52.611Z,0
2017-09-11T00:27:53.266Z,0
2017-09-11T00:28:54.171Z,0
2017-09-11T00:29:54.826Z,0
2017-09-11T00:30:55.481Z,0
2017-09-11T00:31:56.135Z,0
2017-09-11T00:32:56.788Z,0
2017-09-11T00:33:57.743Z,0
2017-09-11T00:34:58.399Z,0
2017-09-11T00:35:59.055Z,0
2017-09-11T00:36:59.708Z,0
2017-09-11T00:38:00.363Z,0
2017-09-11T00:39:01.269Z,0
2017-09-11T00:40:01.923Z,0
2017-09-11T00:41:02.578Z,0
2017-09-11T00:42:03.234Z,0
2017-09-11T00:43:03.887Z,0
2017-09-11T00:44:04.790Z,0
2017-09-11T00:45:05.447Z,0
2017-09-11T00:46:06.101Z,0
2017-09-11T00:47:06.792Z,0
2017-09-11T00:48:07.446Z,0
2017-09-11T00:49:08.351Z,0
2017-09-11T00:50:09.006Z,0
2017-09-11T00:51:09.659Z,0
2017-09-11T00:52:10.315Z,0
2017-09-11T00:53:10.969Z,0
2017-09-11T00:54:11.875Z,0
2017-09-11T00:55:12.529Z,0
2017-09-11T00:56:13.183Z,0
2017-09-11T00:57:13.840Z,0
2017-09-11T00:58:14.494Z,0
2017-09-11T00:59:15.398Z,0
2017-09-11T01:00:16.055Z,0
2017-09-11T01:01:16.710Z,0
2017-09-11T01:02:17.364Z,0
2017-09-11T01:03:18.020Z,0
2017-09-11T01:04:18.923Z,0
2017-09-11T01:05:19.578Z,0
2017-09-11T01:06:20.280Z,0
2017-09-11T01:07:20.936Z,0
2017-09-11T01:08:21.625Z,0
2017-09-11T01:09:22.529Z,0
2017-09-11T01:10:23.182Z,0
2017-09-11T01:11:23.872Z,0
2017-09-11T01:12:24.528Z,0
2017-09-11T01:13:25.217Z,0
2017-09-11T01:14:26.171Z,0
2017-09-11T01:15:26.832Z,0
2017-09-11T01:16:27.486Z,0
2017-09-11T01:17:28.140Z,0
2017-09-11T01:18:28.794Z,0
2017-09-11T01:19:29.750Z,0
2017-09-11T01:20:30.404Z,0
2017-09-11T01:21:31.061Z,0
2017-09-11T01:22:31.713Z,0
2017-09-11T01:23:32.369Z,0
2017-09-11T01:24:33.325Z,0
2017-09-11T01:25:33.977Z,0
2017-09-11T01:26:34.633Z,0
2017-09-11T01:27:35.286Z,0
2017-09-11T01:28:35.940Z,0
2017-09-11T01:29:36.851Z,0
2017-09-11T01:30:37.504Z,0
2017-09-11T01:31:38.159Z,0
2017-09-11T01:32:38.817Z,0
2017-09-11T01:33:39.467Z,0
2017-09-11T01:34:40.374Z,0
2017-09-11T01:35:41.028Z,0
2017-09-11T01:36:41.681Z,0
2017-09-11T01:37:42.336Z,0
2017-09-11T01:38:42.993Z,0
2017-09-11T01:39:43.946Z,0
2017-09-11T01:40:44.600Z,0
2017-09-11T01:41:45.255Z,0
2017-09-11T01:42:45.910Z,0
2017-09-11T01:43:46.563Z,0
2017-09-11T01:44:47.473Z,0
2017-09-11T01:45:48.124Z,0
2017-09-11T01:46:48.783Z,0
2017-09-11T01:47:49.432Z,0
2017-09-11T01:48:50.086Z,0
2017-09-11T01:49:50.992Z,0
2017-09-11T01:50:51.647Z,0
2017-09-11T01:51:52.301Z,0
2017-09-11T01:52:52.957Z,0
2017-09-11T01:53:53.611Z,0
2017-09-11T01:54:54.516Z,0
2017-09-11T01:55:55.171Z,0
2017-09-11T01:56:55.825Z,0
2017-09-11T01:57:56.480Z,0
2017-09-11T01:58:57.136Z,0
2017-09-11T01:59:58.040Z,0
2017-09-11T02:00:58.694Z,0
2017-09-11T02:01:59.353Z,0
2017-09-11T02:03:00.038Z,0
2017-09-11T02:04:00.693Z,0
2017-09-11T02:05:01.597Z,0
2017-09-11T02:06:02.251Z,0
2017-09-11T02:07:02.905Z,0
2017-09-11T02:08:03.560Z,0
2017-09-11T02:09:04.213Z,0
2017-09-11T02:10:05.193Z,0
2017-09-11T02:11:05.825Z,0
2017-09-11T02:12:06.477Z,0
2017-09-11T02:13:07.131Z,0
2017-09-11T02:14:07.822Z,0
2017-09-11T02:15:08.775Z,0
2017-09-11T02:16:09.429Z,0
2017-09-11T02:17:10.083Z,0
2017-09-11T02:18:10.740Z,0
2017-09-11T02:19:11.393Z,0
2017-09-11T02:20:12.298Z,0
2017-09-11T02:21:12.955Z,0
2017-09-11T02:22:13.609Z,0
2017-09-11T02:23:14.264Z,0
2017-09-11T02:24:14.935Z,0
2017-09-11T02:25:15.890Z,0
2017-09-11T02:26:16.547Z,0
2017-09-11T02:27:17.202Z,0
2017-09-11T02:28:17.857Z,0
2017-09-11T02:29:18.509Z,0
2017-09-11T02:30:19.414Z,0
2017-09-11T02:31:20.070Z,0
2017-09-11T02:32:20.724Z,0
2017-09-11T02:33:21.378Z,0
2017-09-11T02:34:22.031Z,0
2017-09-11T02:35:22.936Z,0
2017-09-11T02:36:23.590Z,0
2017-09-11T02:37:24.244Z,0
2017-09-11T02:38:24.897Z,0
2017-09-11T02:39:25.555Z,0
2017-09-11T02:40:26.460Z,0
2017-09-11T02:41:27.114Z,0
2017-09-11T02:42:27.770Z,0
2017-09-11T02:43:28.425Z,0
2017-09-11T02:44:29.079Z,0
2017-09-11T02:45:30.034Z,0
2017-09-11T02:46:30.689Z,0
2017-09-11T02:47:31.343Z,0
2017-09-11T02:48:32.000Z,0
2017-09-11T02:49:32.656Z,0
2017-09-11T02:50:33.614Z,0
2017-09-11T02:51:34.264Z,0
2017-09-11T02:52:34.918Z,0
2017-09-11T02:53:35.575Z,0
2017-09-11T02:54:36.234Z,0
2017-09-11T02:55:37.191Z,0
2017-09-11T02:56:37.843Z,0
2017-09-11T02:57:38.499Z,0
2017-09-11T02:58:39.154Z,0
2017-09-11T02:59:39.813Z,0
2017-09-11T03:00:40.718Z,0
2017-09-11T03:01:41.373Z,0
2017-09-11T03:02:42.029Z,0
2017-09-11T03:03:42.686Z,0
2017-09-11T03:04:43.342Z,0
2017-09-11T03:05:44.247Z,0
2017-09-11T03:06:44.901Z,0
2017-09-11T03:07:45.556Z,0
2017-09-11T03:08:46.210Z,0
2017-09-11T03:09:46.878Z,0
2017-09-11T03:10:47.778Z,0
2017-09-11T03:11:48.434Z,0
2017-09-11T03:12:49.088Z,0
2017-09-11T03:13:49.742Z,0
2017-09-11T03:14:50.411Z,0
2017-09-11T03:15:51.316Z,0
2017-09-11T03:16:51.970Z,0
2017-09-11T03:17:52.625Z,0
2017-09-11T03:18:53.280Z,0
2017-09-11T03:19:53.935Z,0
2017-09-11T03:20:54.850Z,0
2017-09-11T03:21:55.494Z,0
2017-09-11T03:22:56.147Z,0
2017-09-11T03:23:56.800Z,0
2017-09-11T03:24:57.454Z,0
2017-09-11T03:25:58.360Z,0
2017-09-11T03:26:59.019Z,0
2017-09-11T03:27:59.709Z,0
2017-09-11T03:29:00.396Z,0
2017-09-11T03:30:01.054Z,0
2017-09-11T03:31:01.955Z,0
2017-09-11T03:32:02.608Z,0
2017-09-11T03:33:03.262Z,0
2017-09-11T03:34:03.918Z,0
2017-09-11T03:35:04.572Z,0
2017-09-11T03:36:05.476Z,0
2017-09-11T03:37:06.134Z,0
2017-09-11T03:38:06.787Z,0
2017-09-11T03:39:07.442Z,0
2017-09-11T03:40:08.095Z,0
2017-09-11T03:41:09.051Z,0
2017-09-11T03:42:09.740Z,0
2017-09-11T03:43:10.395Z,0
2017-09-11T03:44:11.049Z,0
2017-09-11T03:45:11.703Z,0
2017-09-11T03:46:12.658Z,0
2017-09-11T03:47:13.313Z,0
2017-09-11T03:48:13.967Z,0
2017-09-11T03:49:14.621Z,0
2017-09-11T03:50:15.274Z,0
2017-09-11T03:51:16.180Z,0
2017-09-11T03:52:16.834Z,0
2017-09-11T03:53:17.489Z,0
2017-09-11T03:54:18.144Z,0
2017-09-11T03:55:18.797Z,0
2017-09-11T03:56:19.751Z,0
2017-09-11T03:57:20.406Z,0
2017-09-11T03:58:21.060Z,0
2017-09-11T03:59:21.750Z,0
2017-09-11T04:00:22.406Z,0
2017-09-11T04:01:23.360Z,0
2017-09-11T04:02:24.015Z,0
2017-09-11T04:03:24.669Z,0
2017-09-11T04:04:25.324Z,0
2017-09-11T04:05:25.978Z,0
2017-09-11T04:06:26.932Z,0
2017-09-11T04:07:27.587Z,0
2017-09-11T04:08:28.241Z,0
2017-09-11T04:09:28.895Z,0
2017-09-11T04:10:29.556Z,0
2017-09-11T04:11:30.454Z,0
2017-09-11T04:12:31.108Z,0
2017-09-11T04:13:31.766Z,0
2017-09-11T04:14:32.417Z,4
2017-09-11T04:15:33.106Z,4
2017-09-11T04:16:34.060Z,0
2017-09-11T04:17:34.717Z,4
2017-09-11T04:18:35.371Z,4
2017-09-11T04:19:36.027Z,4
2017-09-11T04:20:36.681Z,4
2017-09-11T04:21:37.636Z,4
2017-09-11T04:22:38.289Z,8
2017-09-11T04:23:38.943Z,8
2017-09-11T04:24:39.603Z,12
2017-09-11T04:25:40.254Z,12
2017-09-11T04:26:41.159Z,16
2017-09-11T04:27:41.817Z,16
2017-09-11T04:28:42.475Z,24
2017-09-11T04:29:43.127Z,24
2017-09-11T04:30:43.823Z,28
2017-09-11T04:31:44.784Z,36
2017-09-11T04:32:45.434Z,40
2017-09-11T04:33:46.089Z,48
2017-09-11T04:34:46.744Z,56
2017-09-11T04:35:47.400Z,64
2017-09-11T04:36:48.306Z,72
2017-09-11T04:37:48.960Z,84
2017-09-11T04:38:49.617Z,96
2017-09-11T04:39:50.273Z,108
2017-09-11T04:40:50.930Z,124
2017-09-11T04:41:51.885Z,136
2017-09-11T04:42:52.543Z,148
2017-09-11T04:43:53.200Z,168
2017-09-11T04:44:53.854Z,188
2017-09-11T04:45:54.510Z,212
2017-09-11T04:46:55.418Z,232
2017-09-11T04:47:56.074Z,252
2017-09-11T04:48:56.730Z,280
2017-09-11T04:49:57.386Z,304
2017-09-11T04:50:58.043Z,340
2017-09-11T04:51:58.949Z,384
2017-09-11T04:52:59.604Z,444
2017-09-11T04:54:00.261Z,508
2017-09-11T04:55:00.917Z,568
2017-09-11T04:56:01.573Z,628
2017-09-11T04:57:02.482Z,692
2017-09-11T04:58:03.144Z,756
2017-09-11T04:59:03.846Z,820
2017-09-11T05:00:04.503Z,888
2017-09-11T05:01:05.161Z,956
2017-09-11T05:02:06.069Z,1036
2017-09-11T05:03:06.728Z,1108
2017-09-11T05:04:07.385Z,1188
2017-09-11T05:05:08.044Z,1252
2017-09-11T05:06:08.703Z,1324
2017-09-11T05:07:09.613Z,1380
2017-09-11T05:08:10.271Z,1432
2017-09-11T05:09:10.931Z,1472
2017-09-11T05:10:11.591Z,1512
2017-09-11T05:11:12.251Z,1540
2017-09-11T05:12:13.211Z,1572
2017-09-11T05:13:13.871Z,1612
2017-09-11T05:14:14.545Z,1636
2017-09-11T05:15:15.190Z,1664
2017-09-11T05:16:15.848Z,1688
2017-09-11T05:17:16.757Z,1688
2017-09-11T05:18:17.416Z,1692
2017-09-11T05:19:18.076Z,1688
2017-09-11T05:20:18.733Z,1700
2017-09-11T05:21:19.393Z,1708
2017-09-11T05:22:20.300Z,1720
2017-09-11T05:23:20.958Z,1732
2017-09-11T05:24:21.617Z,1756
2017-09-11T05:25:22.274Z,1784
2017-09-11T05:26:22.932Z,1824
2017-09-11T05:27:23.898Z,1864
2017-09-11T05:28:24.587Z,1896
2017-09-11T05:29:25.245Z,1936
2017-09-11T05:30:25.903Z,1984
2017-09-11T05:31:26.564Z,2020
2017-09-11T05:32:27.524Z,2044
2017-09-11T05:33:28.182Z,2084
2017-09-11T05:34:28.840Z,2140
2017-09-11T05:35:29.532Z,2172
2017-09-11T05:36:30.192Z,2192
2017-09-11T05:37:31.111Z,2260
2017-09-11T05:38:31.770Z,2388
2017-09-11T05:39:32.428Z,2452
2017-09-11T05:40:33.087Z,2428
2017-09-11T05:41:33.746Z,2484
2017-09-11T05:42:34.706Z,2520
2017-09-11T05:43:35.367Z,2472
2017-09-11T05:44:36.024Z,2424
2017-09-11T05:45:36.683Z,2400
2017-09-11T05:46:37.342Z,2336
2017-09-11T05:47:38.255Z,2216
2017-09-11T05:48:38.914Z,2172
2017-09-11T05:49:39.573Z,2120
2017-09-11T05:50:40.232Z,2040
2017-09-11T05:51:40.891Z,1972
2017-09-11T05:52:41.801Z,1944
2017-09-11T05:53:42.459Z,1920
2017-09-11T05:54:43.121Z,1872
2017-09-11T05:55:43.778Z,1804
2017-09-11T05:56:44.437Z,1708
2017-09-11T05:57:45.398Z,1692
2017-09-11T05:58:46.060Z,1692
2017-09-11T05:59:46.719Z,1672
2017-09-11T06:00:47.376Z,1672
2017-09-11T06:01:48.036Z,1672
2017-09-11T06:02:48.944Z,1684
2017-09-11T06:03:49.605Z,1696
2017-09-11T06:04:50.264Z,1692
2017-09-11T06:05:50.923Z,1696
2017-09-11T06:06:51.583Z,1740
2017-09-11T06:07:52.492Z,1788
2017-09-11T06:08:53.152Z,1832
2017-09-11T06:09:53.820Z,1856
2017-09-11T06:10:54.479Z,1880
2017-09-11T06:11:55.138Z,1928
2017-09-11T06:12:56.097Z,1996
2017-09-11T06:13:56.758Z,2076
2017-09-11T06:14:57.419Z,2180
2017-09-11T06:15:58.077Z,2268
2017-09-11T06:16:58.738Z,2312
2017-09-11T06:17:59.646Z,2364
2017-09-11T06:19:00.306Z,2404
2017-09-11T06:20:00.967Z,2448
2017-09-11T06:21:01.626Z,2472
2017-09-11T06:22:02.286Z,2492
2017-09-11T06:23:03.195Z,2548
2017-09-11T06:24:03.855Z,2564
2017-09-11T06:25:04.528Z,2556
2017-09-11T06:26:05.172Z,2528
2017-09-11T06:27:05.831Z,2500
2017-09-11T06:28:06.740Z,2476
2017-09-11T06:29:07.401Z,2488
2017-09-11T06:30:08.059Z,2540
2017-09-11T06:31:08.718Z,2572
2017-09-11T06:32:09.378Z,2592
2017-09-11T06:33:10.287Z,2592
2017-09-11T06:34:10.946Z,2580
2017-09-11T06:35:11.605Z,2544
2017-09-11T06:36:12.265Z,2508
2017-09-11T06:37:12.923Z,2496
2017-09-11T06:38:13.886Z,2472
2017-09-11T06:39:14.547Z,2456
2017-09-11T06:40:15.205Z,2472
2017-09-11T06:41:15.862Z,2524
2017-09-11T06:42:16.522Z,2556
2017-09-11T06:43:17.480Z,2580
2017-09-11T06:44:18.141Z,2596
2017-09-11T06:45:18.801Z,2644
2017-09-11T06:46:19.460Z,2700
2017-09-11T06:47:20.133Z,2784
2017-09-11T06:48:21.065Z,2876
2017-09-11T06:49:21.724Z,2964
2017-09-11T06:50:22.383Z,3024
2017-09-11T06:51:23.042Z,3044
2017-09-11T06:52:23.701Z,3092
2017-09-11T06:53:24.613Z,3160
2017-09-11T06:54:25.271Z,3268
2017-09-11T06:55:25.965Z,3380
2017-09-11T06:56:26.624Z,3496
2017-09-11T06:57:27.283Z,3664
2017-09-11T06:58:28.244Z,3884
2017-09-11T06:59:28.938Z,4196
2017-09-11T07:00:29.597Z,4524
2017-09-11T07:01:30.259Z,4864
2017-09-11T07:02:30.951Z,5156
2017-09-11T07:03:31.861Z,5348
2017-09-11T07:04:32.557Z,5460
2017-09-11T07:05:33.220Z,5580
2017-09-11T07:06:33.878Z,5632
2017-09-11T07:07:34.537Z,5644
2017-09-11T07:08:35.447Z,5664
2017-09-11T07:09:36.108Z,5820
2017-09-11T07:10:36.769Z,5888
2017-09-11T07:11:37.429Z,5848
2017-09-11T07:12:38.088Z,5672
2017-09-11T07:13:39.050Z,5500
2017-09-11T07:14:39.709Z,5520
2017-09-11T07:15:40.373Z,5684
2017-09-11T07:16:41.032Z,5964
2017-09-11T07:17:41.690Z,6260
2017-09-11T07:18:42.652Z,6616
2017-09-11T07:19:43.317Z,6916
2017-09-11T07:20:43.978Z,7152
2017-09-11T07:21:44.638Z,7396
2017-09-11T07:22:45.301Z,7644
2017-09-11T07:23:46.263Z,7772
2017-09-11T07:24:46.923Z,7816
2017-09-11T07:25:47.587Z,7820
2017-09-11T07:26:48.278Z,7756
2017-09-11T07:27:48.976Z,7696
2017-09-11T07:28:49.887Z,7792
2017-09-11T07:29:50.548Z,7988
2017-09-11T07:30:51.211Z,8276
2017-09-11T07:31:51.869Z,8432
2017-09-11T07:32:52.531Z,8428
2017-09-11T07:33:53.441Z,8332
2017-09-11T07:34:54.102Z,8208
2017-09-11T07:35:54.764Z,8204
2017-09-11T07:36:55.462Z,8240
2017-09-11T07:37:56.121Z,8388
2017-09-11T07:38:57.083Z,8600
2017-09-11T07:39:57.745Z,8948
2017-09-11T07:40:58.407Z,9364
2017-09-11T07:41:59.069Z,9660
2017-09-11T07:42:59.728Z,9716
2017-09-11T07:44:00.692Z,9568
2017-09-11T07:45:01.353Z,9384
2017-09-11T07:46:02.014Z,9324
2017-09-11T07:47:02.676Z,9352
2017-09-11T07:48:03.339Z,9288
2017-09-11T07:49:04.304Z,9132
2017-09-11T07:50:04.965Z,8900
2017-09-11T07:51:05.661Z,8548
2017-09-11T07:52:06.322Z,8284
2017-09-11T07:53:06.983Z,8160
2017-09-11T07:54:07.945Z,8156
2017-09-11T07:55:08.605Z,8124
2017-09-11T07:56:09.268Z,8056
2017-09-11T07:57:09.932Z,7952
2017-09-11T07:58:10.591Z,7944
2017-09-11T07:59:11.504Z,8012
2017-09-11T08:00:12.166Z,8016
2017-09-11T08:01:12.826Z,7908
2017-09-11T08:02:13.489Z,7788
2017-09-11T08:03:14.151Z,7632
2017-09-11T08:04:15.111Z,7460
2017-09-11T08:05:15.773Z,7348
2017-09-11T08:06:16.433Z,7148
2017-09-11T08:07:17.095Z,6880
2017-09-11T08:08:17.793Z,6656
2017-09-11T08:09:18.706Z,6556
2017-09-11T08:10:19.371Z,6552
2017-09-11T08:11:20.031Z,6560
2017-09-11T08:12:20.690Z,6716
2017-09-11T08:13:21.353Z,6832
2017-09-11T08:14:22.316Z,6668
2017-09-11T08:15:22.977Z,6508
2017-09-11T08:16:23.642Z,6512
2017-09-11T08:17:24.300Z,6696
2017-09-11T08:18:24.965Z,6640
2017-09-11T08:19:25.961Z,6436
2017-09-11T08:20:26.660Z,6328
2017-09-11T08:21:27.319Z,6544
2017-09-11T08:22:27.982Z,6764
2017-09-11T08:23:28.643Z,7040
2017-09-11T08:24:29.553Z,7032
2017-09-11T08:25:30.216Z,6888
2017-09-11T08:26:30.877Z,6524
2017-09-11T08:27:31.538Z,6492
2017-09-11T08:28:32.200Z,6552
2017-09-11T08:29:33.115Z,6664
2017-09-11T08:30:33.776Z,6572
2017-09-11T08:31:34.439Z,6200
2017-09-11T08:32:35.133Z,6236
2017-09-11T08:33:35.792Z,6320
2017-09-11T08:34:36.704Z,6156
2017-09-11T08:35:37.366Z,5716
2017-09-11T08:36:38.026Z,5444
2017-09-11T08:37:38.687Z,5648
2017-09-11T08:38:39.348Z,6028
2017-09-11T08:39:40.258Z,5728
2017-09-11T08:40:40.917Z,5776
2017-09-11T08:41:41.578Z,5816
2017-09-11T08:42:42.238Z,6108
2017-09-11T08:43:42.900Z,6288
2017-09-11T08:44:43.862Z,6136
2017-09-11T08:45:44.523Z,5956
2017-09-11T08:46:45.183Z,5688
2017-09-11T08:47:45.843Z,5296
2017-09-11T08:48:46.504Z,5300
2017-09-11T08:49:47.464Z,5284
2017-09-11T08:50:48.126Z,4956
2017-09-11T08:51:48.788Z,4320
2017-09-11T08:52:49.451Z,3992
2017-09-11T08:53:50.108Z,3988
2017-09-11T08:54:51.021Z,4124
2017-09-11T08:55:51.681Z,4276
2017-09-11T08:56:52.342Z,4336
2017-09-11T08:57:53.002Z,4100
2017-09-11T08:58:53.662Z,4108
2017-09-11T08:59:54.628Z,4280
2017-09-11T09:00:55.288Z,4292
2017-09-11T09:01:55.948Z,4496
2017-09-11T09:02:56.608Z,4816
2017-09-11T09:03:57.279Z,4904
2017-09-11T09:04:58.191Z,5040
2017-09-11T09:05:58.850Z,4820
2017-09-11T09:06:59.512Z,5052
2017-09-11T09:08:00.172Z,4932
2017-09-11T09:09:00.869Z,5548
2017-09-11T09:10:01.783Z,6456
2017-09-11T09:11:02.478Z,6448
2017-09-11T09:12:03.137Z,6368
2017-09-11T09:13:03.798Z,5780
2017-09-11T09:14:04.457Z,5280
2017-09-11T09:15:05.417Z,5212
2017-09-11T09:16:06.079Z,5256
2017-09-11T09:17:06.738Z,5708
2017-09-11T09:18:07.402Z,6160
2017-09-11T09:19:08.058Z,5440
2017-09-11T09:20:08.969Z,5264
2017-09-11T09:21:09.629Z,5464
2017-09-11T09:22:10.290Z,5964
2017-09-11T09:23:10.950Z,6036
2017-09-11T09:24:11.612Z,6252
2017-09-11T09:25:12.572Z,5936
2017-09-11T09:26:13.231Z,4968
2017-09-11T09:27:13.892Z,4536
2017-09-11T09:28:14.553Z,4524
2017-09-11T09:29:15.214Z,3496
2017-09-11T09:30:16.124Z,3764
2017-09-11T09:31:16.785Z,3704
2017-09-11T09:32:17.445Z,3944
2017-09-11T09:33:18.105Z,4212
2017-09-11T09:34:18.766Z,3996
2017-09-11T09:35:19.678Z,4444
2017-09-11T09:36:20.340Z,4596
2017-09-11T09:37:20.999Z,4732
2017-09-11T09:38:21.657Z,4880
2017-09-11T09:39:22.319Z,5220
2017-09-11T09:40:23.229Z,6008
2017-09-11T09:41:23.889Z,6880
2017-09-11T09:42:24.552Z,7508
2017-09-11T09:43:25.211Z,7576
2017-09-11T09:44:25.873Z,7804
2017-09-11T09:45:26.785Z,7972
2017-09-11T09:46:27.447Z,7468
2017-09-11T09:47:28.110Z,7788
2017-09-11T09:48:28.801Z,6872
2017-09-11T09:49:29.465Z,7084
2017-09-11T09:50:30.414Z,7544
2017-09-11T09:51:31.079Z,8056
2017-09-11T09:52:31.739Z,8148
2017-09-11T09:53:32.399Z,7300
2017-09-11T09:54:33.061Z,6556
2017-09-11T09:55:33.975Z,6476
2017-09-11T09:56:34.673Z,6296
2017-09-11T09:57:35.333Z,6228
2017-09-11T09:58:35.993Z,5840
2017-09-11T09:59:36.655Z,6360
2017-09-11T10:00:37.566Z,6340
2017-09-11T10:01:38.226Z,6624
2017-09-11T10:02:38.888Z,7304
2017-09-11T10:03:39.584Z,7416
2017-09-11T10:04:40.245Z,6676
2017-09-11T10:05:41.204Z,6464
2017-09-11T10:06:41.864Z,6976
2017-09-11T10:07:42.561Z,7000
2017-09-11T10:08:43.258Z,6956
2017-09-11T10:09:43.917Z,6416
2017-09-11T10:10:44.877Z,6360
2017-09-11T10:11:45.538Z,7012
2017-09-11T10:12:46.199Z,7268
2017-09-11T10:13:46.861Z,8396
2017-09-11T10:14:47.522Z,7932
2017-09-11T10:15:48.484Z,7596
2017-09-11T10:16:49.145Z,8616
2017-09-11T10:17:49.818Z,9516
2017-09-11T10:18:50.479Z,11720
2017-09-11T10:19:51.143Z,13080
2017-09-11T10:20:52.055Z,10292
2017-09-11T10:21:52.716Z,9808
2017-09-11T10:22:53.380Z,11248
2017-09-11T10:23:54.042Z,11656
2017-09-11T10:24:54.702Z,9716
2017-09-11T10:25:55.614Z,11364
2017-09-11T10:26:56.276Z,11124
2017-09-11T10:27:56.938Z,10216
2017-09-11T10:28:57.638Z,11480
2017-09-11T10:29:58.334Z,14640
2017-09-11T10:30:59.331Z,17280
2017-09-11T10:31:59.993Z,14864
2017-09-11T10:33:00.657Z,18272
2017-09-11T10:34:01.320Z,13720
2017-09-11T10:35:01.983Z,13832
2017-09-11T10:36:02.936Z,14888
2017-09-11T10:37:03.598Z,14992
2017-09-11T10:38:04.262Z,14580
2017-09-11T10:39:04.925Z,13700
2017-09-11T10:40:05.586Z,13212
2017-09-11T10:41:06.500Z,12588
2017-09-11T10:42:07.164Z,12508
2017-09-11T10:43:07.824Z,12960
2017-09-11T10:44:08.486Z,12808
2017-09-11T10:45:09.150Z,12320
2017-09-11T10:46:10.068Z,13748
2017-09-11T10:47:10.725Z,15356
2017-09-11T10:48:11.389Z,16688
2017-09-11T10:49:12.050Z,20640
2017-09-11T10:50:12.714Z,19136
2017-09-11T10:51:13.628Z,16328
2017-09-11T10:52:14.295Z,15368
2017-09-11T10:53:14.960Z,15348
2017-09-11T10:54:15.655Z,14948
2017-09-11T10:55:16.317Z,16644
2017-09-11T10:56:17.231Z,17824
2017-09-11T10:57:17.892Z,17728
2017-09-11T10:58:18.574Z,17696
2017-09-11T10:59:19.238Z,19424
2017-09-11T11:00:19.901Z,19904
2017-09-11T11:01:20.865Z,18720
2017-09-11T11:02:21.529Z,20160
2017-09-11T11:03:22.191Z,23488
2017-09-11T11:04:22.855Z,22784
2017-09-11T11:05:23.517Z,16884
2017-09-11T11:06:24.431Z,15748
2017-09-11T11:07:25.094Z,16276
2017-09-11T11:08:25.756Z,15384
2017-09-11T11:09:26.420Z,13576
2017-09-11T11:10:27.084Z,13336
2017-09-11T11:11:27.996Z,13732
2017-09-11T11:12:28.660Z,12908
2017-09-11T11:13:29.322Z,12588
2017-09-11T11:14:29.985Z,13476
2017-09-11T11:15:30.648Z,15264
2017-09-11T11:16:31.561Z,14876
2017-09-11T11:17:32.223Z,16080
2017-09-11T11:18:32.889Z,18720
2017-09-11T11:19:33.587Z,19584
2017-09-11T11:20:34.256Z,17824
2017-09-11T11:21:35.166Z,17824
2017-09-11T11:22:35.828Z,20096
2017-09-11T11:23:36.496Z,21280
2017-09-11T11:24:37.191Z,24032
2017-09-11T11:25:37.853Z,22592
2017-09-11T11:26:38.767Z,21024
2017-09-11T11:27:39.430Z,20448
2017-09-11T11:28:40.096Z,21280
2017-09-11T11:29:40.760Z,21248
2017-09-11T11:30:41.424Z,21504
2017-09-11T11:31:42.341Z,25696
2017-09-11T11:32:43.000Z,19648
2017-09-11T11:33:43.664Z,17248
2017-09-11T11:34:44.330Z,17536
2017-09-11T11:35:44.989Z,19872
2017-09-11T11:36:45.954Z,22144
2017-09-11T11:37:46.616Z,23296
2017-09-11T11:38:47.278Z,24832
2017-09-11T11:39:47.942Z,23072
2017-09-11T11:40:48.605Z,24992
2017-09-11T11:41:49.568Z,25088
2017-09-11T11:42:50.234Z,24256
2017-09-11T11:43:50.901Z,26144
2017-09-11T11:44:51.562Z,32064
2017-09-11T11:45:52.226Z,22944
2017-09-11T11:46:53.138Z,21248
2017-09-11T11:47:53.802Z,19776
2017-09-11T11:48:54.502Z,18016
2017-09-11T11:49:55.166Z,17952
2017-09-11T11:50:55.829Z,18144
2017-09-11T11:51:56.742Z,18144
2017-09-11T11:52:57.406Z,18688
2017-09-11T11:53:58.070Z,21184
2017-09-11T11:54:58.771Z,21824
2017-09-11T11:55:59.433Z,22688
2017-09-11T11:57:00.396Z,20032
2017-09-11T11:58:01.059Z,19040
2017-09-11T11:59:01.723Z,20704
2017-09-11T12:00:02.386Z,18176
2017-09-11T12:01:03.086Z,15932
2017-09-11T12:02:03.998Z,15496
2017-09-11T12:03:04.697Z,16832
2017-09-11T12:04:05.360Z,12344
2017-09-11T12:05:06.025Z,16516
2017-09-11T12:06:06.695Z,15824
2017-09-11T12:07:07.606Z,12776
2017-09-11T12:08:08.269Z,14432
2017-09-11T12:09:08.932Z,11964
2017-09-11T12:10:09.596Z,13884
2017-09-11T12:11:10.261Z,142880
2017-09-11T12:12:11.174Z,15804
2017-09-11T12:13:11.838Z,15704
2017-09-11T12:14:12.500Z,24384
2017-09-11T12:15:13.163Z,25856
2017-09-11T12:16:13.827Z,36736
2017-09-11T12:17:14.747Z,23648
2017-09-11T12:18:15.409Z,23104
2017-09-11T12:19:16.074Z,30592
2017-09-11T12:20:16.738Z,46880
2017-09-11T12:21:17.401Z,66208
2017-09-11T12:22:18.364Z,15716
2017-09-11T12:23:19.026Z,14488
2017-09-11T12:24:19.691Z,14144
2017-09-11T12:25:20.358Z,14228
2017-09-11T12:26:21.018Z,11904
2017-09-11T12:27:21.934Z,11236
2017-09-11T12:28:22.596Z,9352
2017-09-11T12:29:23.257Z,9632
2017-09-11T12:30:23.921Z,8528
2017-09-11T12:32:40.342Z,19264
2017-09-11T12:33:41.003Z,15084
2017-09-11T12:34:41.664Z,9676
2017-09-11T12:35:42.327Z,7724
2017-09-11T12:36:42.990Z,16300
2017-09-11T12:37:43.904Z,15732
2017-09-11T12:38:44.565Z,6568
2017-09-11T12:39:45.224Z,5136
2017-09-11T12:40:45.885Z,4240
2017-09-11T12:41:46.551Z,5692
2017-09-11T12:42:47.455Z,5812
2017-09-11T12:43:48.152Z,6648
2017-09-11T12:44:48.813Z,5564
2017-09-11T12:45:49.474Z,7408
2017-09-11T12:46:50.136Z,10780
2017-09-11T12:47:51.050Z,7436
2017-09-11T12:48:51.713Z,11512
2017-09-11T12:49:52.377Z,55168
2017-09-11T12:50:53.041Z,123968
2017-09-11T12:51:53.709Z,21952
2017-09-11T12:52:54.615Z,59392
2017-09-11T12:53:55.281Z,129984
2017-09-11T12:54:55.948Z,56768
2017-09-11T12:55:56.612Z,27072
2017-09-11T12:56:57.274Z,18560
2017-09-11T12:57:58.237Z,25280
2017-09-11T12:58:58.903Z,30848
2017-09-11T12:59:59.570Z,29568
2017-09-11T13:01:00.230Z,18848
2017-09-11T13:02:00.894Z,29088
2017-09-11T13:03:01.811Z,24480
2017-09-11T13:04:02.474Z,21696
2017-09-11T13:05:03.138Z,18336
2017-09-11T13:06:03.804Z,14376
2017-09-11T13:07:04.467Z,14504
2017-09-11T13:08:05.431Z,11040
2017-09-11T13:09:06.096Z,12572
2017-09-11T13:10:06.760Z,11600
2017-09-11T13:11:07.423Z,13776
2017-09-11T13:12:08.095Z,24416
2017-09-11T13:13:09.048Z,116192
2017-09-11T13:14:09.711Z,36512
2017-09-11T13:15:10.373Z,22624
2017-09-11T13:16:11.045Z,22624
2017-09-11T13:17:11.709Z,21856
2017-09-11T13:18:12.628Z,19488
2017-09-11T13:19:13.289Z,22944
2017-09-11T13:20:13.952Z,26112
2017-09-11T13:21:14.618Z,23136
2017-09-11T13:22:15.281Z,29728
2017-09-11T13:23:16.195Z,22464
2017-09-11T13:24:16.858Z,27520
2017-09-11T13:25:17.527Z,108288
2017-09-11T13:26:18.192Z,99680
2017-09-11T13:27:18.856Z,94144
2017-09-11T13:28:19.771Z,100800
2017-09-11T13:29:20.435Z,48288
2017-09-11T13:30:21.101Z,75712
2017-09-11T13:31:21.766Z,39552
2017-09-11T13:32:22.433Z,26112
2017-09-11T13:33:23.398Z,32160
2017-09-11T13:34:24.065Z,27136
2017-09-11T13:35:24.730Z,32576
2017-09-11T13:36:25.396Z,77440
2017-09-11T13:37:26.062Z,59648
2017-09-11T13:38:27.029Z,24768
2017-09-11T13:39:27.697Z,30272
2017-09-11T13:40:28.367Z,21536
2017-09-11T13:41:29.037Z,20256
2017-09-11T13:42:29.697Z,22272
2017-09-11T13:43:30.614Z,23264
2017-09-11T13:44:31.281Z,22144
2017-09-11T13:45:31.946Z,22688
2017-09-11T13:46:32.612Z,62688
2017-09-11T13:47:33.281Z,49536
2017-09-11T13:48:34.198Z,95616
2017-09-11T13:49:34.865Z,105632
2017-09-11T13:50:35.532Z,104352